sensor_id;sensor_type;location;lat;lon;timestamp;P1;durP1;ratioP1;P2;durP2;ratioP2
35981;SDS011;22058;0.000;0.000;2023-07-02T00:00:38;1.40;;;1.10;;
35981;SDS011;22058;0.000;0.000;2023-07-02T00:03:04;1.27;;;1.27;;
35981;SDS011;22058;0.000;0.000;2023-07-02T00:05:30;1.38;;;1.27;;
35981;SDS011;22058;0.000;0.000;2023-07-02T00:07:56;1.10;;;1.00;;
35981;SDS011;22058;0.000;0.000;2023-07-02T00:10:22;1.27;;;1.27;;
35981;SDS011;22058;0.000;0.000;2023-07-02T00:12:48;1.00;;;0.95;;
35981;SDS011;22058;0.000;0.000;2023-07-02T00:15:15;0.98;;;0.98;;
35981;SDS011;22058;0.000;0.000;2023-07-02T00:17:41;1.30;;;1.20;;
35981;SDS011;22058;0.000;0.000;2023-07-02T00:20:07;1.60;;;1.30;;
35981;SDS011;22058;0.000;0.000;2023-07-02T00:22:40;1.45;;;1.35;;
35981;SDS011;22058;0.000;0.000;2023-07-02T00:27:36;1.20;;;1.15;;
35981;SDS011;22058;0.000;0.000;2023-07-02T00:30:03;1.55;;;1.35;;
35981;SDS011;22058;0.000;0.000;2023-07-02T00:32:29;1.38;;;1.27;;
35981;SDS011;22058;0.000;0.000;2023-07-02T00:34:55;1.45;;;1.35;;
35981;SDS011;22058;0.000;0.000;2023-07-02T00:37:22;1.33;;;1.30;;
35981;SDS011;22058;0.000;0.000;2023-07-02T00:39:48;1.52;;;1.42;;
35981;SDS011;22058;0.000;0.000;2023-07-02T00:42:14;2.38;;;1.42;;
35981;SDS011;22058;0.000;0.000;2023-07-02T00:44:41;1.88;;;1.30;;
35981;SDS011;22058;0.000;0.000;2023-07-02T00:47:09;2.05;;;1.85;;
35981;SDS011;22058;0.000;0.000;2023-07-02T00:49:35;1.42;;;1.33;;
35981;SDS011;22058;0.000;0.000;2023-07-02T00:52:01;3.10;;;1.40;;
35981;SDS011;22058;0.000;0.000;2023-07-02T00:54:28;1.50;;;1.40;;
35981;SDS011;22058;0.000;0.000;2023-07-02T00:56:54;1.30;;;1.20;;
35981;SDS011;22058;0.000;0.000;2023-07-02T00:59:20;2.38;;;1.70;;
35981;SDS011;22058;0.000;0.000;2023-07-02T01:01:47;1.55;;;1.45;;
35981;SDS011;22058;0.000;0.000;2023-07-02T01:04:16;1.30;;;1.20;;
35981;SDS011;22058;0.000;0.000;2023-07-02T01:06:43;1.45;;;1.35;;
35981;SDS011;22058;0.000;0.000;2023-07-02T01:09:10;1.67;;;1.58;;
35981;SDS011;22058;0.000;0.000;2023-07-02T01:11:37;2.17;;;1.33;;
35981;SDS011;22058;0.000;0.000;2023-07-02T01:14:05;1.65;;;1.55;;
35981;SDS011;22058;0.000;0.000;2023-07-02T01:16:33;1.38;;;1.27;;
35981;SDS011;22058;0.000;0.000;2023-07-02T01:19:01;1.83;;;1.60;;
35981;SDS011;22058;0.000;0.000;2023-07-02T01:21:28;1.50;;;1.40;;
35981;SDS011;22058;0.000;0.000;2023-07-02T01:23:54;1.92;;;1.40;;
35981;SDS011;22058;0.000;0.000;2023-07-02T01:26:20;1.88;;;1.58;;
35981;SDS011;22058;0.000;0.000;2023-07-02T01:28:47;1.60;;;1.50;;
35981;SDS011;22058;0.000;0.000;2023-07-02T01:31:13;1.88;;;1.40;;
35981;SDS011;22058;0.000;0.000;2023-07-02T01:33:39;1.98;;;1.52;;
35981;SDS011;22058;0.000;0.000;2023-07-02T01:36:07;1.90;;;1.80;;
35981;SDS011;22058;0.000;0.000;2023-07-02T01:38:33;1.60;;;1.50;;
35981;SDS011;22058;0.000;0.000;2023-07-02T01:40:59;1.67;;;1.58;;
35981;SDS011;22058;0.000;0.000;2023-07-02T01:43:25;1.90;;;1.52;;
35981;SDS011;22058;0.000;0.000;2023-07-02T01:45:51;2.30;;;1.50;;
35981;SDS011;22058;0.000;0.000;2023-07-02T01:48:18;1.55;;;1.45;;
35981;SDS011;22058;0.000;0.000;2023-07-02T01:50:44;2.25;;;2.05;;
35981;SDS011;22058;0.000;0.000;2023-07-02T01:53:10;1.90;;;1.80;;
35981;SDS011;22058;0.000;0.000;2023-07-02T01:55:36;1.60;;;1.50;;
35981;SDS011;22058;0.000;0.000;2023-07-02T01:58:02;2.15;;;2.00;;
35981;SDS011;22058;0.000;0.000;2023-07-02T02:00:28;2.03;;;1.73;;
35981;SDS011;22058;0.000;0.000;2023-07-02T02:02:55;2.53;;;1.70;;
35981;SDS011;22058;0.000;0.000;2023-07-02T02:05:21;2.20;;;2.08;;
35981;SDS011;22058;0.000;0.000;2023-07-02T02:07:47;2.10;;;1.90;;
35981;SDS011;22058;0.000;0.000;2023-07-02T02:10:13;1.98;;;1.80;;
35981;SDS011;22058;0.000;0.000;2023-07-02T02:12:39;1.98;;;1.88;;
35981;SDS011;22058;0.000;0.000;2023-07-02T02:15:06;1.55;;;1.42;;
35981;SDS011;22058;0.000;0.000;2023-07-02T02:17:32;2.03;;;1.92;;
35981;SDS011;22058;0.000;0.000;2023-07-02T02:20:00;1.77;;;1.67;;
35981;SDS011;22058;0.000;0.000;2023-07-02T02:22:26;2.13;;;1.90;;
35981;SDS011;22058;0.000;0.000;2023-07-02T02:24:52;4.05;;;1.80;;
35981;SDS011;22058;0.000;0.000;2023-07-02T02:27:18;1.90;;;1.80;;
35981;SDS011;22058;0.000;0.000;2023-07-02T02:29:44;2.17;;;1.88;;
35981;SDS011;22058;0.000;0.000;2023-07-02T02:32:10;2.58;;;2.38;;
35981;SDS011;22058;0.000;0.000;2023-07-02T02:34:37;2.40;;;2.20;;
35981;SDS011;22058;0.000;0.000;2023-07-02T02:37:03;2.22;;;2.03;;
35981;SDS011;22058;0.000;0.000;2023-07-02T02:39:29;2.42;;;2.28;;
35981;SDS011;22058;0.000;0.000;2023-07-02T02:41:55;1.98;;;1.88;;
35981;SDS011;22058;0.000;0.000;2023-07-02T02:44:21;1.95;;;1.85;;
35981;SDS011;22058;0.000;0.000;2023-07-02T02:46:47;1.83;;;1.73;;
35981;SDS011;22058;0.000;0.000;2023-07-02T02:49:13;3.75;;;2.30;;
35981;SDS011;22058;0.000;0.000;2023-07-02T02:51:39;2.35;;;2.15;;
35981;SDS011;22058;0.000;0.000;2023-07-02T02:54:06;2.08;;;1.98;;
35981;SDS011;22058;0.000;0.000;2023-07-02T02:56:32;2.25;;;2.08;;
35981;SDS011;22058;0.000;0.000;2023-07-02T02:58:58;2.17;;;2.08;;
35981;SDS011;22058;0.000;0.000;2023-07-02T03:01:24;2.42;;;2.22;;
35981;SDS011;22058;0.000;0.000;2023-07-02T03:03:53;2.10;;;1.90;;
35981;SDS011;22058;0.000;0.000;2023-07-02T03:06:19;2.53;;;2.33;;
35981;SDS011;22058;0.000;0.000;2023-07-02T03:08:45;2.60;;;2.40;;
35981;SDS011;22058;0.000;0.000;2023-07-02T03:11:11;1.92;;;1.83;;
35981;SDS011;22058;0.000;0.000;2023-07-02T03:13:37;2.80;;;2.60;;
35981;SDS011;22058;0.000;0.000;2023-07-02T03:16:04;5.22;;;4.85;;
35981;SDS011;22058;0.000;0.000;2023-07-02T03:18:30;2.67;;;2.47;;
35981;SDS011;22058;0.000;0.000;2023-07-02T03:20:56;2.80;;;2.60;;
35981;SDS011;22058;0.000;0.000;2023-07-02T03:23:22;3.50;;;2.38;;
35981;SDS011;22058;0.000;0.000;2023-07-02T03:25:48;2.65;;;2.45;;
35981;SDS011;22058;0.000;0.000;2023-07-02T03:28:15;2.83;;;2.63;;
35981;SDS011;22058;0.000;0.000;2023-07-02T03:30:41;2.80;;;2.60;;
35981;SDS011;22058;0.000;0.000;2023-07-02T03:33:08;2.70;;;2.45;;
35981;SDS011;22058;0.000;0.000;2023-07-02T03:35:34;2.67;;;2.47;;
35981;SDS011;22058;0.000;0.000;2023-07-02T03:38:01;4.47;;;2.53;;
35981;SDS011;22058;0.000;0.000;2023-07-02T03:40:27;2.45;;;2.33;;
35981;SDS011;22058;0.000;0.000;2023-07-02T03:42:53;2.78;;;2.58;;
35981;SDS011;22058;0.000;0.000;2023-07-02T03:45:20;2.88;;;2.67;;
35981;SDS011;22058;0.000;0.000;2023-07-02T03:47:46;2.92;;;2.72;;
35981;SDS011;22058;0.000;0.000;2023-07-02T03:50:12;2.60;;;2.40;;
35981;SDS011;22058;0.000;0.000;2023-07-02T03:52:38;2.95;;;2.65;;
35981;SDS011;22058;0.000;0.000;2023-07-02T03:55:04;2.40;;;2.20;;
35981;SDS011;22058;0.000;0.000;2023-07-02T03:57:30;3.13;;;2.88;;
35981;SDS011;22058;0.000;0.000;2023-07-02T03:59:57;2.72;;;2.53;;
35981;SDS011;22058;0.000;0.000;2023-07-02T04:02:23;3.15;;;2.85;;
35981;SDS011;22058;0.000;0.000;2023-07-02T04:04:49;2.83;;;2.63;;
35981;SDS011;22058;0.000;0.000;2023-07-02T04:07:15;3.25;;;2.95;;
35981;SDS011;22058;0.000;0.000;2023-07-02T04:09:41;2.88;;;2.67;;
35981;SDS011;22058;0.000;0.000;2023-07-02T04:12:07;3.33;;;3.03;;
35981;SDS011;22058;0.000;0.000;2023-07-02T04:14:34;3.17;;;2.88;;
35981;SDS011;22058;0.000;0.000;2023-07-02T04:17:01;2.40;;;2.20;;
35981;SDS011;22058;0.000;0.000;2023-07-02T04:19:29;3.30;;;2.90;;
35981;SDS011;22058;0.000;0.000;2023-07-02T04:21:55;2.95;;;2.67;;
35981;SDS011;22058;0.000;0.000;2023-07-02T04:24:21;2.85;;;2.65;;
35981;SDS011;22058;0.000;0.000;2023-07-02T04:26:47;3.70;;;3.08;;
35981;SDS011;22058;0.000;0.000;2023-07-02T04:29:13;3.72;;;3.15;;
35981;SDS011;22058;0.000;0.000;2023-07-02T04:31:39;3.25;;;2.85;;
35981;SDS011;22058;0.000;0.000;2023-07-02T04:34:05;2.85;;;2.53;;
35981;SDS011;22058;0.000;0.000;2023-07-02T04:36:31;3.05;;;2.85;;
35981;SDS011;22058;0.000;0.000;2023-07-02T04:38:57;3.58;;;3.25;;
35981;SDS011;22058;0.000;0.000;2023-07-02T04:41:23;3.70;;;3.40;;
35981;SDS011;22058;0.000;0.000;2023-07-02T04:43:50;3.33;;;3.00;;
35981;SDS011;22058;0.000;0.000;2023-07-02T04:46:16;3.47;;;3.20;;
35981;SDS011;22058;0.000;0.000;2023-07-02T04:48:43;3.03;;;2.80;;
35981;SDS011;22058;0.000;0.000;2023-07-02T04:51:09;3.13;;;2.83;;
35981;SDS011;22058;0.000;0.000;2023-07-02T04:53:35;3.25;;;3.00;;
35981;SDS011;22058;0.000;0.000;2023-07-02T04:56:02;3.22;;;2.92;;
35981;SDS011;22058;0.000;0.000;2023-07-02T04:58:29;3.10;;;2.90;;
35981;SDS011;22058;0.000;0.000;2023-07-02T05:00:55;2.80;;;2.60;;
35981;SDS011;22058;0.000;0.000;2023-07-02T05:03:21;3.72;;;3.42;;
35981;SDS011;22058;0.000;0.000;2023-07-02T05:05:47;3.58;;;3.30;;
35981;SDS011;22058;0.000;0.000;2023-07-02T05:08:13;3.35;;;3.05;;
35981;SDS011;22058;0.000;0.000;2023-07-02T05:10:40;3.38;;;3.10;;
35981;SDS011;22058;0.000;0.000;2023-07-02T05:13:06;3.60;;;3.33;;
35981;SDS011;22058;0.000;0.000;2023-07-02T05:15:32;3.08;;;2.78;;
35981;SDS011;22058;0.000;0.000;2023-07-02T05:17:58;3.40;;;3.10;;
35981;SDS011;22058;0.000;0.000;2023-07-02T05:20:25;5.05;;;2.80;;
35981;SDS011;22058;0.000;0.000;2023-07-02T05:22:51;3.35;;;3.13;;
35981;SDS011;22058;0.000;0.000;2023-07-02T05:25:18;2.80;;;2.60;;
35981;SDS011;22058;0.000;0.000;2023-07-02T05:27:44;4.00;;;3.45;;
35981;SDS011;22058;0.000;0.000;2023-07-02T05:30:10;3.83;;;3.53;;
35981;SDS011;22058;0.000;0.000;2023-07-02T05:32:36;3.00;;;2.80;;
35981;SDS011;22058;0.000;0.000;2023-07-02T05:35:04;5.15;;;3.55;;
35981;SDS011;22058;0.000;0.000;2023-07-02T05:37:30;2.88;;;2.67;;
35981;SDS011;22058;0.000;0.000;2023-07-02T05:39:56;3.60;;;3.30;;
35981;SDS011;22058;0.000;0.000;2023-07-02T05:42:23;3.08;;;2.88;;
35981;SDS011;22058;0.000;0.000;2023-07-02T05:44:49;3.20;;;3.00;;
35981;SDS011;22058;0.000;0.000;2023-07-02T05:47:15;3.30;;;3.05;;
35981;SDS011;22058;0.000;0.000;2023-07-02T05:49:42;3.28;;;3.03;;
35981;SDS011;22058;0.000;0.000;2023-07-02T05:52:08;3.58;;;3.28;;
35981;SDS011;22058;0.000;0.000;2023-07-02T05:54:34;2.88;;;2.67;;
35981;SDS011;22058;0.000;0.000;2023-07-02T05:57:00;3.22;;;3.03;;
35981;SDS011;22058;0.000;0.000;2023-07-02T05:59:26;3.58;;;3.28;;
35981;SDS011;22058;0.000;0.000;2023-07-02T06:01:53;3.67;;;3.38;;
35981;SDS011;22058;0.000;0.000;2023-07-02T06:04:19;3.20;;;2.97;;
35981;SDS011;22058;0.000;0.000;2023-07-02T06:06:45;4.07;;;3.70;;
35981;SDS011;22058;0.000;0.000;2023-07-02T06:09:11;3.75;;;3.40;;
35981;SDS011;22058;0.000;0.000;2023-07-02T06:11:37;3.50;;;3.20;;
35981;SDS011;22058;0.000;0.000;2023-07-02T06:14:03;3.40;;;3.17;;
35981;SDS011;22058;0.000;0.000;2023-07-02T06:16:29;3.83;;;3.28;;
35981;SDS011;22058;0.000;0.000;2023-07-02T06:18:55;3.55;;;3.25;;
35981;SDS011;22058;0.000;0.000;2023-07-02T06:21:21;3.50;;;3.20;;
35981;SDS011;22058;0.000;0.000;2023-07-02T06:23:48;3.22;;;3.03;;
35981;SDS011;22058;0.000;0.000;2023-07-02T06:26:14;3.55;;;3.25;;
35981;SDS011;22058;0.000;0.000;2023-07-02T06:28:40;4.13;;;3.75;;
35981;SDS011;22058;0.000;0.000;2023-07-02T06:31:06;3.65;;;3.42;;
35981;SDS011;22058;0.000;0.000;2023-07-02T06:33:32;3.25;;;3.05;;
35981;SDS011;22058;0.000;0.000;2023-07-02T06:35:59;3.80;;;3.47;;
35981;SDS011;22058;0.000;0.000;2023-07-02T06:38:25;3.78;;;3.38;;
35981;SDS011;22058;0.000;0.000;2023-07-02T06:40:51;3.88;;;3.40;;
35981;SDS011;22058;0.000;0.000;2023-07-02T06:43:17;3.53;;;3.25;;
35981;SDS011;22058;0.000;0.000;2023-07-02T06:45:43;3.67;;;3.38;;
35981;SDS011;22058;0.000;0.000;2023-07-02T06:48:09;3.92;;;3.58;;
35981;SDS011;22058;0.000;0.000;2023-07-02T06:50:35;4.18;;;3.78;;
35981;SDS011;22058;0.000;0.000;2023-07-02T06:53:01;4.07;;;3.78;;
35981;SDS011;22058;0.000;0.000;2023-07-02T06:55:27;3.50;;;3.20;;
35981;SDS011;22058;0.000;0.000;2023-07-02T06:57:54;3.65;;;3.35;;
35981;SDS011;22058;0.000;0.000;2023-07-02T07:00:20;3.38;;;3.13;;
35981;SDS011;22058;0.000;0.000;2023-07-02T07:02:46;3.60;;;3.35;;
35981;SDS011;22058;0.000;0.000;2023-07-02T07:05:12;3.47;;;3.17;;
35981;SDS011;22058;0.000;0.000;2023-07-02T07:07:38;3.70;;;3.40;;
35981;SDS011;22058;0.000;0.000;2023-07-02T07:10:05;3.97;;;3.67;;
35981;SDS011;22058;0.000;0.000;2023-07-02T07:12:31;3.60;;;3.30;;
35981;SDS011;22058;0.000;0.000;2023-07-02T07:14:58;3.53;;;3.22;;
35981;SDS011;22058;0.000;0.000;2023-07-02T07:17:24;9.73;;;4.20;;
35981;SDS011;22058;0.000;0.000;2023-07-02T07:19:50;3.38;;;3.15;;
35981;SDS011;22058;0.000;0.000;2023-07-02T07:22:16;3.58;;;3.30;;
35981;SDS011;22058;0.000;0.000;2023-07-02T07:24:42;3.65;;;3.33;;
35981;SDS011;22058;0.000;0.000;2023-07-02T07:27:08;3.95;;;3.35;;
35981;SDS011;22058;0.000;0.000;2023-07-02T07:29:35;3.83;;;3.53;;
35981;SDS011;22058;0.000;0.000;2023-07-02T07:32:01;2.83;;;2.63;;
35981;SDS011;22058;0.000;0.000;2023-07-02T07:34:27;3.63;;;3.40;;
35981;SDS011;22058;0.000;0.000;2023-07-02T07:36:54;3.17;;;2.97;;
35981;SDS011;22058;0.000;0.000;2023-07-02T07:39:20;4.28;;;3.92;;
35981;SDS011;22058;0.000;0.000;2023-07-02T07:41:46;3.47;;;3.17;;
35981;SDS011;22058;0.000;0.000;2023-07-02T07:44:13;3.88;;;3.25;;
35981;SDS011;22058;0.000;0.000;2023-07-02T07:46:39;3.35;;;3.15;;
35981;SDS011;22058;0.000;0.000;2023-07-02T07:49:06;3.15;;;2.95;;
35981;SDS011;22058;0.000;0.000;2023-07-02T07:51:32;3.78;;;3.47;;
35981;SDS011;22058;0.000;0.000;2023-07-02T07:54:00;3.60;;;3.05;;
35981;SDS011;22058;0.000;0.000;2023-07-02T07:56:27;2.88;;;2.67;;
35981;SDS011;22058;0.000;0.000;2023-07-02T07:58:53;3.20;;;3.00;;
35981;SDS011;22058;0.000;0.000;2023-07-02T08:01:19;3.33;;;3.03;;
35981;SDS011;22058;0.000;0.000;2023-07-02T08:03:45;3.38;;;3.17;;
35981;SDS011;22058;0.000;0.000;2023-07-02T08:06:11;3.42;;;3.13;;
35981;SDS011;22058;0.000;0.000;2023-07-02T08:08:38;3.65;;;3.35;;
35981;SDS011;22058;0.000;0.000;2023-07-02T08:11:04;3.60;;;3.30;;
35981;SDS011;22058;0.000;0.000;2023-07-02T08:13:30;3.58;;;3.30;;
35981;SDS011;22058;0.000;0.000;2023-07-02T08:15:56;3.30;;;3.03;;
35981;SDS011;22058;0.000;0.000;2023-07-02T08:18:22;3.65;;;3.35;;
35981;SDS011;22058;0.000;0.000;2023-07-02T08:20:49;4.80;;;3.05;;
35981;SDS011;22058;0.000;0.000;2023-07-02T08:23:15;3.70;;;3.38;;
35981;SDS011;22058;0.000;0.000;2023-07-02T08:25:41;3.53;;;3.33;;
35981;SDS011;22058;0.000;0.000;2023-07-02T08:28:07;3.40;;;3.20;;
35981;SDS011;22058;0.000;0.000;2023-07-02T08:30:33;4.00;;;3.70;;
35981;SDS011;22058;0.000;0.000;2023-07-02T08:32:59;3.45;;;3.25;;
35981;SDS011;22058;0.000;0.000;2023-07-02T08:35:25;3.78;;;2.95;;
35981;SDS011;22058;0.000;0.000;2023-07-02T08:37:51;3.67;;;3.45;;
35981;SDS011;22058;0.000;0.000;2023-07-02T08:40:18;3.65;;;3.35;;
35981;SDS011;22058;0.000;0.000;2023-07-02T08:42:45;3.40;;;3.20;;
35981;SDS011;22058;0.000;0.000;2023-07-02T08:45:15;3.40;;;3.20;;
35981;SDS011;22058;0.000;0.000;2023-07-02T08:47:45;3.63;;;3.33;;
35981;SDS011;22058;0.000;0.000;2023-07-02T08:50:12;3.25;;;2.97;;
35981;SDS011;22058;0.000;0.000;2023-07-02T08:52:38;3.42;;;3.22;;
35981;SDS011;22058;0.000;0.000;2023-07-02T08:55:04;3.63;;;3.33;;
35981;SDS011;22058;0.000;0.000;2023-07-02T08:57:31;3.85;;;3.55;;
35981;SDS011;22058;0.000;0.000;2023-07-02T08:59:57;3.63;;;3.33;;
35981;SDS011;22058;0.000;0.000;2023-07-02T09:02:29;4.07;;;3.78;;
35981;SDS011;22058;0.000;0.000;2023-07-02T09:05:03;3.58;;;3.38;;
35981;SDS011;22058;0.000;0.000;2023-07-02T09:07:29;3.45;;;3.15;;
35981;SDS011;22058;0.000;0.000;2023-07-02T09:09:55;3.00;;;2.80;;
35981;SDS011;22058;0.000;0.000;2023-07-02T09:12:31;3.88;;;3.58;;
35981;SDS011;22058;0.000;0.000;2023-07-02T09:15:01;3.85;;;3.55;;
35981;SDS011;22058;0.000;0.000;2023-07-02T09:17:29;3.28;;;3.08;;
35981;SDS011;22058;0.000;0.000;2023-07-02T09:19:55;3.53;;;3.28;;
35981;SDS011;22058;0.000;0.000;2023-07-02T09:22:21;4.05;;;3.65;;
35981;SDS011;22058;0.000;0.000;2023-07-02T09:24:54;3.78;;;3.47;;
35981;SDS011;22058;0.000;0.000;2023-07-02T09:27:32;3.25;;;3.00;;
35981;SDS011;22058;0.000;0.000;2023-07-02T09:29:58;3.35;;;3.13;;
35981;SDS011;22058;0.000;0.000;2023-07-02T09:32:31;3.60;;;3.40;;
35981;SDS011;22058;0.000;0.000;2023-07-02T09:34:57;3.65;;;3.45;;
35981;SDS011;22058;0.000;0.000;2023-07-02T09:37:24;3.55;;;3.35;;
35981;SDS011;22058;0.000;0.000;2023-07-02T09:39:50;3.45;;;3.22;;
35981;SDS011;22058;0.000;0.000;2023-07-02T09:42:17;3.58;;;3.28;;
35981;SDS011;22058;0.000;0.000;2023-07-02T09:44:45;3.70;;;3.40;;
35981;SDS011;22058;0.000;0.000;2023-07-02T09:47:12;3.80;;;3.50;;
35981;SDS011;22058;0.000;0.000;2023-07-02T09:49:39;3.72;;;3.42;;
35981;SDS011;22058;0.000;0.000;2023-07-02T09:52:06;4.07;;;3.78;;
35981;SDS011;22058;0.000;0.000;2023-07-02T09:54:33;3.25;;;3.05;;
35981;SDS011;22058;0.000;0.000;2023-07-02T09:56:59;3.95;;;3.65;;
35981;SDS011;22058;0.000;0.000;2023-07-02T09:59:26;3.75;;;3.45;;
35981;SDS011;22058;0.000;0.000;2023-07-02T10:01:52;4.22;;;3.92;;
35981;SDS011;22058;0.000;0.000;2023-07-02T10:04:19;4.25;;;3.85;;
35981;SDS011;22058;0.000;0.000;2023-07-02T10:06:49;3.60;;;3.30;;
35981;SDS011;22058;0.000;0.000;2023-07-02T10:09:19;5.13;;;2.90;;
35981;SDS011;22058;0.000;0.000;2023-07-02T10:11:46;3.92;;;3.63;;
35981;SDS011;22058;0.000;0.000;2023-07-02T10:14:12;3.72;;;3.47;;
35981;SDS011;22058;0.000;0.000;2023-07-02T10:16:54;4.20;;;3.90;;
35981;SDS011;22058;0.000;0.000;2023-07-02T10:19:20;3.65;;;3.35;;
35981;SDS011;22058;0.000;0.000;2023-07-02T10:21:46;3.60;;;3.30;;
35981;SDS011;22058;0.000;0.000;2023-07-02T10:24:16;4.07;;;3.78;;
35981;SDS011;22058;0.000;0.000;2023-07-02T10:26:53;3.97;;;3.67;;
35981;SDS011;22058;0.000;0.000;2023-07-02T10:29:20;3.55;;;3.33;;
35981;SDS011;22058;0.000;0.000;2023-07-02T10:31:49;3.75;;;3.45;;
35981;SDS011;22058;0.000;0.000;2023-07-02T10:34:15;4.57;;;4.28;;
35981;SDS011;22058;0.000;0.000;2023-07-02T10:36:42;3.90;;;3.60;;
35981;SDS011;22058;0.000;0.000;2023-07-02T10:39:08;4.20;;;3.90;;
35981;SDS011;22058;0.000;0.000;2023-07-02T10:41:34;4.13;;;3.83;;
35981;SDS011;22058;0.000;0.000;2023-07-02T10:44:09;4.20;;;3.90;;
35981;SDS011;22058;0.000;0.000;2023-07-02T10:46:45;4.18;;;3.83;;
35981;SDS011;22058;0.000;0.000;2023-07-02T10:49:11;3.97;;;3.67;;
35981;SDS011;22058;0.000;0.000;2023-07-02T10:51:38;3.85;;;3.55;;
35981;SDS011;22058;0.000;0.000;2023-07-02T10:54:04;4.32;;;4.03;;
35981;SDS011;22058;0.000;0.000;2023-07-02T10:56:31;4.55;;;4.15;;
35981;SDS011;22058;0.000;0.000;2023-07-02T10:58:58;4.10;;;3.80;;
35981;SDS011;22058;0.000;0.000;2023-07-02T11:01:28;4.00;;;3.70;;
35981;SDS011;22058;0.000;0.000;2023-07-02T11:03:55;3.92;;;3.63;;
35981;SDS011;22058;0.000;0.000;2023-07-02T11:06:21;4.22;;;3.63;;
35981;SDS011;22058;0.000;0.000;2023-07-02T11:08:47;4.28;;;3.92;;
35981;SDS011;22058;0.000;0.000;2023-07-02T11:11:13;3.97;;;3.58;;
35981;SDS011;22058;0.000;0.000;2023-07-02T11:13:46;3.55;;;3.33;;
35981;SDS011;22058;0.000;0.000;2023-07-02T11:18:44;3.92;;;3.63;;
35981;SDS011;22058;0.000;0.000;2023-07-02T11:21:10;3.90;;;3.50;;
35981;SDS011;22058;0.000;0.000;2023-07-02T11:23:36;4.13;;;3.83;;
35981;SDS011;22058;0.000;0.000;2023-07-02T11:26:02;4.10;;;3.80;;
35981;SDS011;22058;0.000;0.000;2023-07-02T11:28:31;4.20;;;3.90;;
35981;SDS011;22058;0.000;0.000;2023-07-02T11:30:59;3.72;;;3.42;;
35981;SDS011;22058;0.000;0.000;2023-07-02T11:33:37;3.95;;;3.65;;
35981;SDS011;22058;0.000;0.000;2023-07-02T11:36:04;4.20;;;3.90;;
35981;SDS011;22058;0.000;0.000;2023-07-02T11:38:30;4.20;;;3.90;;
35981;SDS011;22058;0.000;0.000;2023-07-02T11:40:56;3.78;;;3.47;;
35981;SDS011;22058;0.000;0.000;2023-07-02T11:43:22;3.90;;;3.65;;
35981;SDS011;22058;0.000;0.000;2023-07-02T11:45:48;4.45;;;4.15;;
35981;SDS011;22058;0.000;0.000;2023-07-02T11:48:14;4.18;;;3.88;;
35981;SDS011;22058;0.000;0.000;2023-07-02T11:50:40;4.22;;;3.92;;
35981;SDS011;22058;0.000;0.000;2023-07-02T11:53:06;4.32;;;4.03;;
35981;SDS011;22058;0.000;0.000;2023-07-02T11:55:33;5.47;;;4.97;;
35981;SDS011;22058;0.000;0.000;2023-07-02T11:57:59;4.40;;;4.10;;
35981;SDS011;22058;0.000;0.000;2023-07-02T12:00:25;3.83;;;3.53;;
35981;SDS011;22058;0.000;0.000;2023-07-02T12:02:52;4.03;;;3.72;;
35981;SDS011;22058;0.000;0.000;2023-07-02T12:05:18;4.72;;;4.43;;
35981;SDS011;22058;0.000;0.000;2023-07-02T12:07:44;3.85;;;3.58;;
35981;SDS011;22058;0.000;0.000;2023-07-02T12:10:10;4.55;;;4.25;;
35981;SDS011;22058;0.000;0.000;2023-07-02T12:12:36;4.30;;;4.00;;
35981;SDS011;22058;0.000;0.000;2023-07-02T12:15:02;4.70;;;4.30;;
35981;SDS011;22058;0.000;0.000;2023-07-02T12:17:29;4.13;;;3.83;;
35981;SDS011;22058;0.000;0.000;2023-07-02T12:19:55;4.57;;;4.18;;
35981;SDS011;22058;0.000;0.000;2023-07-02T12:22:21;4.80;;;4.40;;
35981;SDS011;22058;0.000;0.000;2023-07-02T12:24:48;5.75;;;4.10;;
35981;SDS011;22058;0.000;0.000;2023-07-02T12:27:20;4.30;;;4.00;;
35981;SDS011;22058;0.000;0.000;2023-07-02T12:29:47;4.32;;;4.03;;
35981;SDS011;22058;0.000;0.000;2023-07-02T12:32:13;4.53;;;4.20;;
35981;SDS011;22058;0.000;0.000;2023-07-02T12:34:40;4.30;;;4.00;;
35981;SDS011;22058;0.000;0.000;2023-07-02T12:37:06;4.03;;;3.72;;
35981;SDS011;22058;0.000;0.000;2023-07-02T12:39:32;4.50;;;4.20;;
35981;SDS011;22058;0.000;0.000;2023-07-02T12:41:58;4.78;;;4.25;;
35981;SDS011;22058;0.000;0.000;2023-07-02T12:44:24;4.45;;;4.05;;
35981;SDS011;22058;0.000;0.000;2023-07-02T12:46:50;4.82;;;4.43;;
35981;SDS011;22058;0.000;0.000;2023-07-02T12:49:17;4.55;;;4.20;;
35981;SDS011;22058;0.000;0.000;2023-07-02T12:51:43;4.35;;;4.05;;
35981;SDS011;22058;0.000;0.000;2023-07-02T12:54:09;4.38;;;4.07;;
35981;SDS011;22058;0.000;0.000;2023-07-02T12:56:35;4.28;;;3.97;;
35981;SDS011;22058;0.000;0.000;2023-07-02T12:59:02;4.32;;;3.92;;
35981;SDS011;22058;0.000;0.000;2023-07-02T13:01:28;4.82;;;4.43;;
35981;SDS011;22058;0.000;0.000;2023-07-02T13:03:54;5.03;;;4.65;;
35981;SDS011;22058;0.000;0.000;2023-07-02T13:06:20;4.80;;;4.40;;
35981;SDS011;22058;0.000;0.000;2023-07-02T13:08:46;4.68;;;4.30;;
35981;SDS011;22058;0.000;0.000;2023-07-02T13:11:13;4.75;;;4.30;;
35981;SDS011;22058;0.000;0.000;2023-07-02T13:13:39;4.75;;;4.35;;
35981;SDS011;22058;0.000;0.000;2023-07-02T13:16:06;4.53;;;4.13;;
35981;SDS011;22058;0.000;0.000;2023-07-02T13:18:32;5.30;;;4.90;;
35981;SDS011;22058;0.000;0.000;2023-07-02T13:20:58;4.72;;;4.28;;
35981;SDS011;22058;0.000;0.000;2023-07-02T13:23:24;3.95;;;3.67;;
35981;SDS011;22058;0.000;0.000;2023-07-02T13:25:50;4.40;;;4.10;;
35981;SDS011;22058;0.000;0.000;2023-07-02T13:28:16;5.50;;;5.10;;
35981;SDS011;22058;0.000;0.000;2023-07-02T13:30:43;4.13;;;3.83;;
35981;SDS011;22058;0.000;0.000;2023-07-02T13:33:09;4.70;;;4.30;;
35981;SDS011;22058;0.000;0.000;2023-07-02T13:35:35;4.57;;;4.22;;
35981;SDS011;22058;0.000;0.000;2023-07-02T13:38:02;4.68;;;4.38;;
35981;SDS011;22058;0.000;0.000;2023-07-02T13:40:30;4.70;;;4.30;;
35981;SDS011;22058;0.000;0.000;2023-07-02T13:42:56;4.82;;;4.43;;
35981;SDS011;22058;0.000;0.000;2023-07-02T13:45:22;4.38;;;4.07;;
35981;SDS011;22058;0.000;0.000;2023-07-02T13:47:48;4.65;;;4.25;;
35981;SDS011;22058;0.000;0.000;2023-07-02T13:50:14;4.22;;;3.92;;
35981;SDS011;22058;0.000;0.000;2023-07-02T13:52:40;4.60;;;3.72;;
35981;SDS011;22058;0.000;0.000;2023-07-02T13:55:07;4.65;;;4.35;;
35981;SDS011;22058;0.000;0.000;2023-07-02T13:57:34;4.38;;;4.07;;
35981;SDS011;22058;0.000;0.000;2023-07-02T14:00:00;5.30;;;4.80;;
35981;SDS011;22058;0.000;0.000;2023-07-02T14:02:26;4.78;;;4.38;;
35981;SDS011;22058;0.000;0.000;2023-07-02T14:04:52;5.50;;;4.65;;
35981;SDS011;22058;0.000;0.000;2023-07-02T14:07:18;4.60;;;4.30;;
35981;SDS011;22058;0.000;0.000;2023-07-02T14:09:44;4.82;;;4.43;;
35981;SDS011;22058;0.000;0.000;2023-07-02T14:12:10;4.70;;;4.30;;
35981;SDS011;22058;0.000;0.000;2023-07-02T14:14:37;4.95;;;4.55;;
35981;SDS011;22058;0.000;0.000;2023-07-02T14:17:03;4.35;;;4.03;;
35981;SDS011;22058;0.000;0.000;2023-07-02T14:19:29;4.38;;;3.97;;
35981;SDS011;22058;0.000;0.000;2023-07-02T14:21:55;4.25;;;3.95;;
35981;SDS011;22058;0.000;0.000;2023-07-02T14:24:22;5.07;;;4.68;;
35981;SDS011;22058;0.000;0.000;2023-07-02T14:26:48;4.53;;;4.13;;
35981;SDS011;22058;0.000;0.000;2023-07-02T14:29:14;4.70;;;4.30;;
35981;SDS011;22058;0.000;0.000;2023-07-02T14:31:40;5.05;;;4.70;;
35981;SDS011;22058;0.000;0.000;2023-07-02T14:34:06;5.00;;;4.60;;
35981;SDS011;22058;0.000;0.000;2023-07-02T14:36:32;4.40;;;4.10;;
35981;SDS011;22058;0.000;0.000;2023-07-02T14:38:58;4.63;;;4.32;;
35981;SDS011;22058;0.000;0.000;2023-07-02T14:41:24;4.75;;;4.45;;
35981;SDS011;22058;0.000;0.000;2023-07-02T14:43:52;5.38;;;4.97;;
35981;SDS011;22058;0.000;0.000;2023-07-02T14:46:18;4.90;;;4.50;;
35981;SDS011;22058;0.000;0.000;2023-07-02T14:48:44;5.53;;;5.13;;
35981;SDS011;22058;0.000;0.000;2023-07-02T14:51:10;5.35;;;4.95;;
35981;SDS011;22058;0.000;0.000;2023-07-02T14:53:37;5.13;;;4.72;;
35981;SDS011;22058;0.000;0.000;2023-07-02T14:56:03;5.00;;;4.60;;
35981;SDS011;22058;0.000;0.000;2023-07-02T14:58:29;5.13;;;4.63;;
35981;SDS011;22058;0.000;0.000;2023-07-02T15:00:56;5.10;;;4.70;;